AirNav   Everest Fuels
 
 518 users online  

74XA Gun Barrel City Airpark
Gun Barrel City, Texas, USA

GOING TO GUN BARREL CITY?


FAA INFORMATION EFFECTIVE 08 SEPTEMBER 2022

Location

FAA Identifier: 74XA
Lat/Long: 32-21-17.0000N 096-08-44.0000W
32-21.283333N 096-08.733333W
32.3547222,-96.1455556
(estimated)
Elevation: 385 ft. / 117 m (estimated)
Time zone: UTC -5 (UTC -6 during Standard Time)
Zip code: 75147

Airport Operations

Airport use: Private use. Permission required prior to landing
Activation date: 01/2012
Control tower: no
ARTCC: FORT WORTH CENTER
FSS: FORT WORTH FLIGHT SERVICE STATION
Attendance: MON-FRI 0900-1700, ALL SAT 1000-1500
SUNDAY BY CALL
Wind indicator: yes
Segmented circle: no
Lights: PCL LGTS - 5 SLOW CLICKS - 122.9 WEST SIDE RWY LIGHT RED & GREEN.

Airport Communications

CTAF: 122.9
WX AWOS-3PT at F44 (20 nm SE): 119.6 (903-670-1247)

Nearby radio navigation aids

VOR radial/distance  VOR name  Freq  Var
CQYr014/10.8CEDAR CREEK VORTAC114.8006E
FZTr292/35.4FRANKSTON VOR/DME111.4006E
TYRr264/37.6TYLER VOR/DME114.2006E

 
NDB name  Hdg/Dist  Freq  Var  ID
CROSSROADS329/19.921502ECSZ -.-. ... --..
PYRAMID359/29.641806EPYF .--. -.-- ..-.
MESQUITE142/33.524803EPQF .--. --.- ..-.

Airport Services

Fuel available: 100LL

Runway Information

Runway 18/36

Dimensions: 3075 x 45 ft. / 937 x 14 m
Surface: asphalt, in good condition
RUNWAY 18  RUNWAY 36
Traffic pattern: leftleft

Airport Ownership and Management from official FAA records

Ownership: Privately-owned
Owner: GUN BARREL CITY AIRPARK LLC
1223 HARBOR POINT RD
GUN BARREL CITY, TX 75156
Phone 903-802-8574
Manager: GALEN IRWIN
1223 HARBOR POINT RD
GUN BARREL CITY, TX 75156
Phone 903-802-8574

Airport Operational Statistics

Aircraft based on the field: 11
Single engine airplanes: 11
    

Additional Remarks

FOR CD CTC FORT WORTH ARTCC AT 817-858-7584.

Instrument Procedures

There are no published instrument procedures at 74XA.

Some nearby airports with instrument procedures:

F44 - Athens Municipal Airport (20 nm SE)
KTRL - Terrell Municipal Airport (22 nm N)
KCRS - C David Campbell Field-Corsicana Municipal Airport (23 nm SW)
F41 - Ennis Municipal Airport (26 nm W)
KHQZ - Mesquite Metro Airport (31 nm NW)
 
Loc | Ops | Rwys | IFR | FBO | Links
Com | Nav | Svcs | Stats | Notes

City of Fort Worth
 
Aerial photo
WARNING: Photo may not be current or correct
Aerial photo of 74XA (Gun Barrel City Airpark)
Photo courtesy of Gun Barrel City Airpark
Taken in January 2011
looking north.

Do you have a better or more recent aerial photo of Gun Barrel City Airpark that you would like to share? If so, please send us your photo.

 
Airport distance calculator
Flying to Gun Barrel City Airpark? Find the distance to fly.

From to 74XA

Sunrise and sunset
Times for 01-Oct-2022
 Local
(UTC-5)
 Zulu
(UTC)
Morning civil twilight06:5511:55
Sunrise07:2012:20
Sunset19:0900:09
Evening civil twilight19:3300:33

Current date and time
Zulu (UTC)  02-Oct-2022 04:58:38
Local (UTC-5)  01-Oct-2022 23:58:38
 
METAR
KF44 
20nm SE 
020435Z AUTO 00000KT 10SM CLR 12/07 A3009 RMK AO2
KTRL 
23nm N 
020453Z AUTO 00000KT 10SM CLR 14/08 A3010 RMK AO2 SLP189 T01390078
KCRS 
23nm SW 
020453Z AUTO 03003KT 10SM CLR 17/06 A3010 RMK AO2 SLP190 T01670061 $
KHQZ 
31nm NW 
020435Z AUTO 00000KT 10SM CLR 17/06 A3010 RMK AO1 T01680062
KLNC 
32nm NW 
020435Z AUTO 00000KT 10SM CLR 13/08 A3011 RMK AO2 T01280083
KF46 
38nm NW 
020435Z AUTO 16003KT 10SM CLR 19/06 A3010 RMK AO2 T01900063
KTYR 
38nm E 
020453Z AUTO 15006KT 10SM CLR 17/07 A3009 RMK AO2 SLP183 T01670072 $
KJWY 
39nm W 
020435Z AUTO 00000KT 10SM CLR 13/08 A3012 RMK AO2 T01320077
TAF
KTYR 
38nm E 
011726Z 0118/0218 06005KT P6SM SKC FM020100 VRB03KT P6SM SKC FM021500 07006KT P6SM SKC
KDAL 
46nm NW 
020255Z 0203/0224 08006KT P6SM SKC
NOTAMs
Click for the latest NOTAMs
NOTAMs are issued by the DoD/FAA and will open in a separate window not controlled by AirNav.

 

 
 

FBO, Fuel Providers, and Aircraft Ground Support

  
 Business Name 
 
 Contact 
 
 Services / Description 
 
Fuel Prices
 
Comments
  
Galvic Enterprises, Texas Inc. 903-802-8574
[web site]
Airport management, Aviation fuel, Aircraft parking (ramp or tiedown), Hangar leasing / sales, Aircraft interiors, Internet access, Restaurant

More info about Galvic Enterprises, Texas Inc.
Avfuel
no prices available
 
   write
Update Fuel Prices
 

Would you like to see your business listed on this page?

 If your business provides an interesting product or service to pilots, flight crews, aircraft, or users of the Gun Barrel City Airpark, you should consider listing it here.  To start the listing process, click on the button below
 
Add a business
 

Other Pages about Gun Barrel City Airpark

gunbarrelcityairpark.com
 
Update a link
 
Copyright © AirNav, LLC. All rights reserved. Privacy Policy  Contact